createdAt,value
2016-08-22T00:00:38.379Z,0
2016-08-22T00:01:38.443Z,0
2016-08-22T00:02:39.108Z,0
2016-08-22T00:03:39.829Z,0
2016-08-22T00:04:39.121Z,0
2016-08-22T00:05:39.319Z,0
2016-08-22T00:06:39.833Z,0
2016-08-22T00:07:39.292Z,0
2016-08-22T00:08:39.139Z,0
2016-08-22T00:09:38.441Z,0
2016-08-22T00:10:38.496Z,0
2016-08-22T00:11:37.751Z,0
2016-08-22T00:12:37.752Z,0
2016-08-22T00:13:38.462Z,0
2016-08-22T00:14:38.477Z,0
2016-08-22T00:15:39.186Z,0
2016-08-22T00:16:39.900Z,0
2016-08-22T00:17:39.201Z,0
2016-08-22T00:18:40.204Z,0
2016-08-22T00:19:38.503Z,0
2016-08-22T00:20:39.618Z,0
2016-08-22T00:21:39.228Z,0
2016-08-22T00:22:37.828Z,0
2016-08-22T00:23:38.552Z,0
2016-08-22T00:24:39.248Z,0
2016-08-22T00:25:39.963Z,0
2016-08-22T00:26:39.265Z,0
2016-08-22T00:27:37.851Z,0
2016-08-22T00:28:38.567Z,0
2016-08-22T00:29:40.236Z,0
2016-08-22T00:30:39.290Z,0
2016-08-22T00:31:39.410Z,0
2016-08-22T00:32:39.300Z,0
2016-08-22T00:33:38.600Z,0
2016-08-22T00:34:37.906Z,0
2016-08-22T00:35:39.326Z,0
2016-08-22T00:36:38.620Z,0
2016-08-22T00:37:39.341Z,0
2016-08-22T00:38:38.636Z,0
2016-08-22T00:39:39.353Z,0
2016-08-22T00:40:39.725Z,0
2016-08-22T00:41:39.366Z,0
2016-08-22T00:42:39.524Z,0
2016-08-22T00:43:39.381Z,0
2016-08-22T00:44:39.404Z,0
2016-08-22T00:45:38.693Z,0
2016-08-22T00:46:37.985Z,0
2016-08-22T00:47:39.404Z,0
2016-08-22T00:48:39.417Z,0
2016-08-22T00:49:37.299Z,0
2016-08-22T00:50:38.013Z,0
2016-08-22T00:51:38.869Z,0
2016-08-22T00:52:40.147Z,0
2016-08-22T00:53:40.946Z,0
2016-08-22T00:54:39.503Z,0
2016-08-22T00:55:40.314Z,0
2016-08-22T00:56:38.806Z,0
2016-08-22T00:57:38.823Z,0
2016-08-22T00:58:39.482Z,0
2016-08-22T00:59:38.778Z,0
2016-08-22T01:00:38.790Z,0
2016-08-22T01:01:37.533Z,0
2016-08-22T01:02:40.787Z,0
2016-08-22T01:03:38.839Z,0
2016-08-22T01:04:39.319Z,0
2016-08-22T01:05:38.821Z,0
2016-08-22T01:06:41.361Z,0
2016-08-22T01:07:38.128Z,0
2016-08-22T01:08:39.545Z,0
2016-08-22T01:09:38.140Z,0
2016-08-22T01:10:38.155Z,0
2016-08-22T01:11:39.569Z,0
2016-08-22T01:12:38.872Z,0
2016-08-22T01:13:39.276Z,0
2016-08-22T01:14:39.589Z,0
2016-08-22T01:15:38.900Z,0
2016-08-22T01:16:39.600Z,0
2016-08-22T01:17:38.207Z,0
2016-08-22T01:18:38.908Z,0
2016-08-22T01:19:38.931Z,0
2016-08-22T01:20:38.976Z,0
2016-08-22T01:21:39.637Z,0
2016-08-22T01:22:38.935Z,0
2016-08-22T01:23:38.950Z,0
2016-08-22T01:24:38.960Z,0
2016-08-22T01:25:39.668Z,0
2016-08-22T01:26:39.017Z,0
2016-08-22T01:27:39.676Z,0
2016-08-22T01:28:41.100Z,0
2016-08-22T01:29:38.988Z,0
2016-08-22T01:30:38.833Z,0
2016-08-22T01:31:39.011Z,0
2016-08-22T01:32:40.427Z,0
2016-08-22T01:33:39.714Z,0
2016-08-22T01:34:39.021Z,0
2016-08-22T01:35:39.020Z,0
2016-08-22T01:36:39.739Z,0
2016-08-22T01:37:38.336Z,0
2016-08-22T01:38:39.757Z,0
2016-08-22T01:39:40.459Z,0
2016-08-22T01:40:38.353Z,0
2016-08-22T01:41:38.917Z,0
2016-08-22T01:42:39.788Z,0
2016-08-22T01:43:39.081Z,0
2016-08-22T01:44:39.089Z,0
2016-08-22T01:45:39.804Z,0
2016-08-22T01:46:40.569Z,0
2016-08-22T01:47:39.814Z,0
2016-08-22T01:48:40.403Z,0
2016-08-22T01:49:40.536Z,0
2016-08-22T01:50:38.967Z,0
2016-08-22T01:51:39.142Z,0
2016-08-22T01:52:40.936Z,0
2016-08-22T01:53:39.144Z,0
2016-08-22T01:54:39.867Z,0
2016-08-22T01:55:38.460Z,0
2016-08-22T01:56:38.562Z,0
2016-08-22T01:57:39.890Z,0
2016-08-22T01:58:39.891Z,0
2016-08-22T01:59:38.540Z,0
2016-08-22T02:00:39.203Z,0
2016-08-22T02:01:39.047Z,0
2016-08-22T02:02:40.676Z,0
2016-08-22T02:03:40.977Z,0
2016-08-22T02:04:39.930Z,0
2016-08-22T02:05:39.232Z,0
2016-08-22T02:06:39.235Z,0
2016-08-22T02:07:38.534Z,0
2016-08-22T02:08:40.679Z,0
2016-08-22T02:09:40.671Z,0
2016-08-22T02:10:38.552Z,0
2016-08-22T02:11:40.688Z,0
2016-08-22T02:12:40.514Z,0
2016-08-22T02:13:39.996Z,0
2016-08-22T02:14:39.684Z,0
2016-08-22T02:15:37.988Z,0
2016-08-22T02:16:41.028Z,0
2016-08-22T02:17:38.627Z,0
2016-08-22T02:18:40.038Z,0
2016-08-22T02:19:38.631Z,0
2016-08-22T02:20:40.088Z,0
2016-08-22T02:21:40.751Z,0
2016-08-22T02:22:39.359Z,0
2016-08-22T02:23:38.647Z,0
2016-08-22T02:24:40.770Z,0
2016-08-22T02:25:40.725Z,0
2016-08-22T02:26:39.389Z,0
2016-08-22T02:27:38.670Z,0
2016-08-22T02:28:38.683Z,0
2016-08-22T02:29:40.100Z,0
2016-08-22T02:30:39.397Z,0
2016-08-22T02:31:38.696Z,0
2016-08-22T02:32:40.120Z,0
2016-08-22T02:33:40.836Z,0
2016-08-22T02:34:39.427Z,0
2016-08-22T02:35:38.727Z,0
2016-08-22T02:36:40.044Z,0
2016-08-22T02:37:38.740Z,0
2016-08-22T02:38:39.201Z,0
2016-08-22T02:39:38.048Z,0
2016-08-22T02:40:39.483Z,0
2016-08-22T02:41:40.888Z,0
2016-08-22T02:42:40.187Z,0
2016-08-22T02:44:06.579Z,0
2016-08-22T02:44:40.200Z,0
2016-08-22T02:45:40.230Z,0
2016-08-22T02:46:39.511Z,0
2016-08-22T02:47:41.068Z,0
2016-08-22T02:48:39.526Z,0
2016-08-22T02:49:40.249Z,0
2016-08-22T02:50:39.531Z,0
2016-08-22T02:51:39.562Z,0
2016-08-22T02:52:40.257Z,0
2016-08-22T02:53:40.266Z,0
2016-08-22T02:54:38.854Z,0
2016-08-22T02:55:40.277Z,0
2016-08-22T02:56:39.577Z,0
2016-08-22T02:57:40.350Z,0
2016-08-22T02:58:40.698Z,0
2016-08-22T02:59:40.307Z,0
2016-08-22T03:00:41.160Z,0
2016-08-22T03:01:39.663Z,0
2016-08-22T03:02:38.920Z,0
2016-08-22T03:03:39.677Z,0
2016-08-22T03:04:40.338Z,0
2016-08-22T03:05:38.934Z,0
2016-08-22T03:06:38.938Z,0
2016-08-22T03:07:40.358Z,0
2016-08-22T03:08:39.665Z,0
2016-08-22T03:09:40.115Z,0
2016-08-22T03:10:39.676Z,0
2016-08-22T03:11:41.558Z,0
2016-08-22T03:12:39.704Z,0
2016-08-22T03:13:39.949Z,0
2016-08-22T03:14:39.742Z,0
2016-08-22T03:15:41.180Z,0
2016-08-22T03:16:39.722Z,0
2016-08-22T03:17:39.713Z,0
2016-08-22T03:18:40.445Z,0
2016-08-22T03:19:40.439Z,0
2016-08-22T03:20:39.845Z,0
2016-08-22T03:21:39.060Z,0
2016-08-22T03:22:40.937Z,0
2016-08-22T03:23:39.758Z,0
2016-08-22T03:24:40.270Z,0
2016-08-22T03:25:40.478Z,0
2016-08-22T03:26:41.189Z,0
2016-08-22T03:27:39.785Z,0
2016-08-22T03:28:41.205Z,0
2016-08-22T03:29:39.089Z,0
2016-08-22T03:30:40.515Z,0
2016-08-22T03:31:40.620Z,0
2016-08-22T03:32:41.232Z,0
2016-08-22T03:33:41.268Z,0
2016-08-22T03:34:39.834Z,0
2016-08-22T03:35:39.837Z,0
2016-08-22T03:36:40.558Z,0
2016-08-22T03:37:40.566Z,0
2016-08-22T03:38:40.566Z,0
2016-08-22T03:39:39.883Z,0
2016-08-22T03:40:39.876Z,0
2016-08-22T03:41:40.584Z,0
2016-08-22T03:42:39.913Z,0
2016-08-22T03:43:39.911Z,0
2016-08-22T03:44:41.612Z,0
2016-08-22T03:45:40.610Z,0
2016-08-22T03:46:40.123Z,0
2016-08-22T03:47:40.640Z,0
2016-08-22T03:48:41.445Z,0
2016-08-22T03:49:40.667Z,0
2016-08-22T03:50:40.652Z,0
2016-08-22T03:51:40.654Z,0
2016-08-22T03:52:39.264Z,0
2016-08-22T03:53:41.381Z,0
2016-08-22T03:54:40.673Z,0
2016-08-22T03:55:41.238Z,0
2016-08-22T03:56:39.275Z,0
2016-08-22T03:57:41.403Z,0
2016-08-22T03:58:40.010Z,0
2016-08-22T03:59:41.206Z,0
2016-08-22T04:00:40.065Z,0
2016-08-22T04:01:39.379Z,0
2016-08-22T04:02:39.465Z,0
2016-08-22T04:03:40.738Z,0
2016-08-22T04:04:41.450Z,0
2016-08-22T04:05:40.045Z,0
2016-08-22T04:06:39.347Z,0
2016-08-22T04:07:40.053Z,0
2016-08-22T04:08:41.125Z,0
2016-08-22T04:09:40.080Z,0
2016-08-22T04:10:41.847Z,0
2016-08-22T04:11:40.793Z,0
2016-08-22T04:12:40.797Z,0
2016-08-22T04:13:40.093Z,0
2016-08-22T04:14:41.530Z,0
2016-08-22T04:15:41.528Z,0
2016-08-22T04:16:41.684Z,0
2016-08-22T04:17:41.409Z,0
2016-08-22T04:18:40.849Z,0
2016-08-22T04:19:40.135Z,0
2016-08-22T04:20:40.868Z,0
2016-08-22T04:21:42.716Z,0
2016-08-22T04:22:40.920Z,0
2016-08-22T04:23:40.874Z,0
2016-08-22T04:24:40.886Z,0
2016-08-22T04:25:40.178Z,0
2016-08-22T04:26:40.899Z,0
2016-08-22T04:27:41.607Z,0
2016-08-22T04:28:39.498Z,0
2016-08-22T04:29:40.203Z,0
2016-08-22T04:30:40.508Z,0
2016-08-22T04:31:40.220Z,0
2016-08-22T04:32:42.463Z,0
2016-08-22T04:33:39.531Z,0
2016-08-22T04:34:41.657Z,0
2016-08-22T04:35:39.534Z,0
2016-08-22T04:36:40.259Z,0
2016-08-22T04:37:40.972Z,0
2016-08-22T04:38:41.686Z,0
2016-08-22T04:39:39.573Z,0
2016-08-22T04:40:41.694Z,0
2016-08-22T04:41:40.686Z,0
2016-08-22T04:42:41.021Z,0
2016-08-22T04:43:41.324Z,0
2016-08-22T04:44:40.310Z,0
2016-08-22T04:45:42.717Z,0
2016-08-22T04:46:38.920Z,0
2016-08-22T04:47:40.324Z,0
2016-08-22T04:48:41.045Z,0
2016-08-22T04:49:39.644Z,0
2016-08-22T04:50:40.350Z,0
2016-08-22T04:51:40.363Z,0
2016-08-22T04:52:41.269Z,0
2016-08-22T04:53:41.083Z,0
2016-08-22T04:54:41.922Z,0
2016-08-22T04:55:40.389Z,0
2016-08-22T04:56:41.097Z,0
2016-08-22T04:57:41.102Z,0
2016-08-22T04:58:41.112Z,0
2016-08-22T04:59:40.408Z,0
2016-08-22T05:00:41.131Z,0
2016-08-22T05:01:40.472Z,0
2016-08-22T05:02:40.477Z,0
2016-08-22T05:03:40.229Z,0
2016-08-22T05:04:40.443Z,0
2016-08-22T05:05:41.596Z,0
2016-08-22T05:06:40.451Z,0
2016-08-22T05:07:41.486Z,0
2016-08-22T05:08:39.767Z,0
2016-08-22T05:09:40.473Z,0
2016-08-22T05:10:39.775Z,0
2016-08-22T05:11:39.785Z,0
2016-08-22T05:12:41.199Z,0
2016-08-22T05:14:08.026Z,0
2016-08-22T05:14:41.924Z,0
2016-08-22T05:15:40.510Z,0
2016-08-22T05:16:42.550Z,0
2016-08-22T05:17:41.299Z,0
2016-08-22T05:18:41.090Z,0
2016-08-22T05:19:39.837Z,5
2016-08-22T05:20:40.548Z,5
2016-08-22T05:21:40.560Z,5
2016-08-22T05:22:40.718Z,5
2016-08-22T05:23:41.278Z,5
2016-08-22T05:24:41.283Z,5
2016-08-22T05:25:40.633Z,5
2016-08-22T05:26:40.589Z,5
2016-08-22T05:27:41.348Z,5
2016-08-22T05:28:41.314Z,5
2016-08-22T05:29:40.612Z,5
2016-08-22T05:30:39.914Z,5
2016-08-22T05:31:41.730Z,5
2016-08-22T05:32:39.930Z,5
2016-08-22T05:33:40.639Z,5
2016-08-22T05:34:40.648Z,5
2016-08-22T05:35:39.946Z,10
2016-08-22T05:36:40.660Z,10
2016-08-22T05:37:41.373Z,10
2016-08-22T05:38:42.182Z,5
2016-08-22T05:39:41.388Z,10
2016-08-22T05:40:40.027Z,5
2016-08-22T05:41:40.000Z,5
2016-08-22T05:42:42.066Z,5
2016-08-22T05:43:40.002Z,5
2016-08-22T05:44:42.126Z,5
2016-08-22T05:45:42.132Z,5
2016-08-22T05:46:41.428Z,5
2016-08-22T05:47:40.749Z,5
2016-08-22T05:48:40.738Z,5
2016-08-22T05:49:40.943Z,5
2016-08-22T05:50:40.754Z,5
2016-08-22T05:51:42.390Z,5
2016-08-22T05:52:40.763Z,5
2016-08-22T05:53:40.115Z,5
2016-08-22T05:54:42.196Z,5
2016-08-22T05:55:41.492Z,5
2016-08-22T05:56:40.800Z,5
2016-08-22T05:57:41.509Z,5
2016-08-22T05:58:42.226Z,5
2016-08-22T05:59:42.225Z,5
2016-08-22T06:00:40.979Z,5
2016-08-22T06:01:40.826Z,5
2016-08-22T06:02:44.487Z,10
2016-08-22T06:03:42.265Z,10
2016-08-22T06:04:41.003Z,10
2016-08-22T06:05:40.897Z,10
2016-08-22T06:06:40.861Z,5
2016-08-22T06:07:40.869Z,5
2016-08-22T06:08:40.869Z,5
2016-08-22T06:09:40.886Z,5
2016-08-22T06:10:41.601Z,10
2016-08-22T06:11:40.181Z,10
2016-08-22T06:12:41.612Z,10
2016-08-22T06:13:39.843Z,10
2016-08-22T06:14:40.206Z,10
2016-08-22T06:15:41.828Z,10
2016-08-22T06:16:41.638Z,10
2016-08-22T06:17:42.493Z,5
2016-08-22T06:18:41.649Z,5
2016-08-22T06:19:41.657Z,5
2016-08-22T06:20:40.956Z,10
2016-08-22T06:21:41.663Z,10
2016-08-22T06:22:40.262Z,10
2016-08-22T06:23:40.320Z,10
2016-08-22T06:24:41.034Z,10
2016-08-22T06:25:40.992Z,10
2016-08-22T06:26:40.930Z,10
2016-08-22T06:27:41.704Z,10
2016-08-22T06:28:41.011Z,10
2016-08-22T06:29:41.726Z,10
2016-08-22T06:30:40.314Z,10
2016-08-22T06:31:40.323Z,10
2016-08-22T06:32:42.451Z,10
2016-08-22T06:33:41.041Z,10
2016-08-22T06:34:40.344Z,10
2016-08-22T06:35:42.225Z,10
2016-08-22T06:36:42.474Z,15
2016-08-22T06:37:41.520Z,15
2016-08-22T06:38:42.591Z,15
2016-08-22T06:39:42.832Z,15
2016-08-22T06:40:41.796Z,15
2016-08-22T06:41:41.096Z,15
2016-08-22T06:42:40.402Z,15
2016-08-22T06:44:41.122Z,15
2016-08-22T06:45:40.417Z,20
2016-08-22T06:46:40.423Z,20
2016-08-22T06:47:40.432Z,20
2016-08-22T06:48:41.292Z,20
2016-08-22T06:49:42.613Z,25
2016-08-22T06:50:42.973Z,25
2016-08-22T06:51:41.167Z,25
2016-08-22T06:52:41.882Z,30
2016-08-22T06:53:41.938Z,35
2016-08-22T06:54:41.945Z,45
2016-08-22T06:55:42.600Z,60
2016-08-22T06:56:41.198Z,65
2016-08-22T06:57:41.915Z,75
2016-08-22T06:58:40.501Z,85
2016-08-22T06:59:41.222Z,95
2016-08-22T07:00:41.933Z,135
2016-08-22T07:01:44.510Z,185
2016-08-22T07:02:41.244Z,85
2016-08-22T07:03:41.296Z,70
2016-08-22T07:04:41.250Z,65
2016-08-22T07:05:41.270Z,70
2016-08-22T07:06:42.736Z,80
2016-08-22T07:07:42.688Z,90
2016-08-22T07:08:41.995Z,105
2016-08-22T07:09:41.290Z,115
2016-08-22T07:10:41.303Z,105
2016-08-22T07:11:40.656Z,105
2016-08-22T07:12:42.564Z,70
2016-08-22T07:13:40.670Z,70
2016-08-22T07:14:41.322Z,70
2016-08-22T07:15:41.331Z,55
2016-08-22T07:16:41.388Z,55
2016-08-22T07:17:40.633Z,60
2016-08-22T07:18:42.071Z,55
2016-08-22T07:19:41.359Z,55
2016-08-22T07:20:40.718Z,50
2016-08-22T07:21:40.667Z,35
2016-08-22T07:22:40.671Z,25
2016-08-22T07:23:41.879Z,20
2016-08-22T07:24:42.115Z,20
2016-08-22T07:25:43.227Z,15
2016-08-22T07:26:42.115Z,20
2016-08-22T07:27:40.710Z,20
2016-08-22T07:28:41.420Z,20
2016-08-22T07:29:40.723Z,15
2016-08-22T07:30:41.437Z,15
2016-08-22T07:31:41.507Z,15
2016-08-22T07:32:42.159Z,15
2016-08-22T07:33:42.174Z,15
2016-08-22T07:34:43.243Z,15
2016-08-22T07:35:41.470Z,15
2016-08-22T07:36:40.866Z,15
2016-08-22T07:37:42.214Z,25
2016-08-22T07:38:41.490Z,25
2016-08-22T07:39:41.502Z,30
2016-08-22T07:40:42.214Z,25
2016-08-22T07:41:41.512Z,20
2016-08-22T07:42:41.513Z,15
2016-08-22T07:43:40.870Z,15
2016-08-22T07:44:41.535Z,15
2016-08-22T07:45:42.640Z,15
2016-08-22T07:46:40.132Z,15
2016-08-22T07:47:40.851Z,15
2016-08-22T07:48:41.566Z,15
2016-08-22T07:49:41.570Z,20
2016-08-22T07:50:42.281Z,20
2016-08-22T07:51:42.288Z,20
2016-08-22T07:52:41.583Z,20
2016-08-22T07:53:41.593Z,25
2016-08-22T07:54:42.410Z,30
2016-08-22T07:55:40.902Z,30
2016-08-22T07:56:42.526Z,35
2016-08-22T07:57:40.918Z,35
2016-08-22T07:58:41.698Z,35
2016-08-22T07:59:41.635Z,30
2016-08-22T08:00:42.251Z,25
2016-08-22T08:01:41.651Z,25
2016-08-22T08:02:42.362Z,20
2016-08-22T08:03:41.672Z,25
2016-08-22T08:04:41.673Z,25
2016-08-22T08:05:42.384Z,25
2016-08-22T08:06:42.389Z,30
2016-08-22T08:07:41.085Z,30
2016-08-22T08:08:42.413Z,25
2016-08-22T08:09:41.701Z,25
2016-08-22T08:10:41.720Z,25
2016-08-22T08:11:42.437Z,25
2016-08-22T08:12:43.194Z,25
2016-08-22T08:13:41.734Z,25
2016-08-22T08:14:40.330Z,25
2016-08-22T08:15:41.740Z,30
2016-08-22T08:16:42.459Z,30
2016-08-22T08:17:42.519Z,30
2016-08-22T08:18:43.267Z,35
2016-08-22T08:19:41.773Z,35
2016-08-22T08:20:43.397Z,35
2016-08-22T08:21:42.553Z,35
2016-08-22T08:22:41.133Z,35
2016-08-22T08:23:42.505Z,40
2016-08-22T08:24:41.817Z,40
2016-08-22T08:25:41.811Z,35
2016-08-22T08:26:41.115Z,25
2016-08-22T08:27:41.120Z,25
2016-08-22T08:28:42.592Z,30
2016-08-22T08:29:42.090Z,30
2016-08-22T08:30:42.557Z,30
2016-08-22T08:31:44.283Z,30
2016-08-22T08:32:42.620Z,30
2016-08-22T08:33:42.122Z,30
2016-08-22T08:34:42.586Z,35
2016-08-22T08:35:43.350Z,30
2016-08-22T08:36:41.191Z,30
2016-08-22T08:37:42.599Z,20
2016-08-22T08:38:42.613Z,20
2016-08-22T08:39:43.327Z,20
2016-08-22T08:40:41.969Z,20
2016-08-22T08:41:41.918Z,20
2016-08-22T08:42:41.953Z,25
2016-08-22T08:43:42.645Z,30
2016-08-22T08:44:43.257Z,30
2016-08-22T08:45:42.003Z,35
2016-08-22T08:46:41.246Z,50
2016-08-22T08:47:41.964Z,50
2016-08-22T08:48:41.963Z,50
2016-08-22T08:49:42.690Z,45
2016-08-22T08:50:42.002Z,40
2016-08-22T08:51:41.993Z,35
2016-08-22T08:52:42.012Z,35
2016-08-22T08:53:42.712Z,35
2016-08-22T08:54:42.020Z,35
2016-08-22T08:55:42.927Z,40
2016-08-22T08:56:41.327Z,40
2016-08-22T08:57:42.789Z,40
2016-08-22T08:58:41.328Z,30
2016-08-22T08:59:42.095Z,20
2016-08-22T09:00:41.346Z,20
2016-08-22T09:01:42.059Z,20
2016-08-22T09:02:42.112Z,25
2016-08-22T09:03:41.423Z,25
2016-08-22T09:04:42.083Z,30
2016-08-22T09:05:42.148Z,30
2016-08-22T09:06:43.198Z,30
2016-08-22T09:07:42.099Z,25
2016-08-22T09:08:44.568Z,20
2016-08-22T09:09:42.817Z,20
2016-08-22T09:10:42.119Z,20
2016-08-22T09:11:42.125Z,15
2016-08-22T09:12:42.133Z,15
2016-08-22T09:13:51.558Z,15
2016-08-22T09:14:43.575Z,15
2016-08-22T09:15:43.146Z,15
2016-08-22T09:16:42.158Z,20
2016-08-22T09:17:43.926Z,20
2016-08-22T09:18:42.325Z,15
2016-08-22T09:19:43.961Z,20
2016-08-22T09:20:42.945Z,25
2016-08-22T09:21:42.954Z,30
2016-08-22T09:22:43.614Z,35
2016-08-22T09:23:42.203Z,35
2016-08-22T09:24:42.919Z,40
2016-08-22T09:25:42.220Z,35
2016-08-22T09:26:42.225Z,30
2016-08-22T09:27:42.937Z,30
2016-08-22T09:28:42.938Z,30
2016-08-22T09:29:42.957Z,35
2016-08-22T09:30:44.942Z,35
2016-08-22T09:31:41.553Z,30
2016-08-22T09:32:42.973Z,30
2016-08-22T09:33:41.568Z,25
2016-08-22T09:34:42.282Z,25
2016-08-22T09:35:42.297Z,20
2016-08-22T09:36:43.002Z,25
2016-08-22T09:37:41.596Z,25
2016-08-22T09:38:42.309Z,20
2016-08-22T09:39:43.017Z,15
2016-08-22T09:40:42.319Z,15
2016-08-22T09:41:44.256Z,10
2016-08-22T09:42:42.329Z,10
2016-08-22T09:43:43.116Z,15
2016-08-22T09:44:43.055Z,20
2016-08-22T09:45:42.349Z,20
2016-08-22T09:46:41.706Z,25
2016-08-22T09:47:42.895Z,25
2016-08-22T09:48:42.370Z,25
2016-08-22T09:49:42.382Z,25
2016-08-22T09:50:42.389Z,25
2016-08-22T09:51:41.736Z,25
2016-08-22T09:52:44.538Z,25
2016-08-22T09:53:41.752Z,25
2016-08-22T09:54:43.177Z,30
2016-08-22T09:55:43.888Z,30
2016-08-22T09:56:42.429Z,25
2016-08-22T09:57:43.204Z,30
2016-08-22T09:58:41.909Z,30
2016-08-22T09:59:42.500Z,30
2016-08-22T10:00:41.087Z,30
2016-08-22T10:01:43.877Z,30
2016-08-22T10:02:42.473Z,30
2016-08-22T10:03:43.367Z,25
2016-08-22T10:04:42.533Z,25
2016-08-22T10:05:43.189Z,30
2016-08-22T10:06:41.792Z,30
2016-08-22T10:07:43.919Z,30
2016-08-22T10:08:42.509Z,30
2016-08-22T10:09:43.220Z,30
2016-08-22T10:10:43.276Z,30
2016-08-22T10:11:43.235Z,25
2016-08-22T10:12:44.004Z,25
2016-08-22T10:13:42.602Z,25
2016-08-22T10:14:43.498Z,20
2016-08-22T10:15:42.555Z,20
2016-08-22T10:16:42.758Z,20
2016-08-22T10:17:41.851Z,25
2016-08-22T10:18:41.865Z,30
2016-08-22T10:19:44.013Z,25
2016-08-22T10:20:43.286Z,25
2016-08-22T10:21:42.604Z,20
2016-08-22T10:22:44.124Z,20
2016-08-22T10:23:42.652Z,20
2016-08-22T10:24:41.197Z,20
2016-08-22T10:25:43.771Z,20
2016-08-22T10:26:43.331Z,25
2016-08-22T10:27:45.108Z,25
2016-08-22T10:28:41.940Z,25
2016-08-22T10:29:43.595Z,25
2016-08-22T10:30:43.360Z,25
2016-08-22T10:31:42.709Z,25
2016-08-22T10:32:41.964Z,30
2016-08-22T10:33:42.680Z,30
2016-08-22T10:34:41.975Z,30
2016-08-22T10:35:42.688Z,30
2016-08-22T10:36:43.910Z,30
2016-08-22T10:37:42.698Z,30
2016-08-22T10:38:44.790Z,35
2016-08-22T10:39:44.217Z,35
2016-08-22T10:40:43.218Z,35
2016-08-22T10:41:42.827Z,35
2016-08-22T10:42:43.491Z,30
2016-08-22T10:43:43.500Z,30
2016-08-22T10:44:43.456Z,35
2016-08-22T10:45:44.163Z,30
2016-08-22T10:46:42.759Z,35
2016-08-22T10:47:44.431Z,35
2016-08-22T10:48:42.061Z,35
2016-08-22T10:49:42.771Z,35
2016-08-22T10:50:42.794Z,35
2016-08-22T10:51:43.438Z,30
2016-08-22T10:52:42.795Z,30
2016-08-22T10:53:42.148Z,25
2016-08-22T10:54:42.863Z,25
2016-08-22T10:55:43.586Z,25
2016-08-22T10:56:43.539Z,25
2016-08-22T10:57:42.838Z,25
2016-08-22T10:58:44.602Z,25
2016-08-22T10:59:42.948Z,25
2016-08-22T11:00:44.686Z,25
2016-08-22T11:01:42.923Z,25
2016-08-22T11:02:43.989Z,25
2016-08-22T11:03:44.334Z,25
2016-08-22T11:04:43.587Z,25
2016-08-22T11:05:43.601Z,25
2016-08-22T11:06:42.900Z,25
2016-08-22T11:07:42.906Z,30
2016-08-22T11:08:43.610Z,30
2016-08-22T11:09:42.912Z,25
2016-08-22T11:10:42.212Z,30
2016-08-22T11:11:44.232Z,25
2016-08-22T11:12:42.933Z,25
2016-08-22T11:14:43.653Z,25
2016-08-22T11:15:44.768Z,25
2016-08-22T11:16:44.425Z,25
2016-08-22T11:17:42.968Z,25
2016-08-22T11:18:43.680Z,25
2016-08-22T11:19:42.986Z,25
2016-08-22T11:20:42.282Z,25
2016-08-22T11:21:44.465Z,25
2016-08-22T11:22:42.993Z,25
2016-08-22T11:23:43.718Z,25
2016-08-22T11:24:43.720Z,25
2016-08-22T11:25:44.436Z,30
2016-08-22T11:26:44.000Z,30
2016-08-22T11:27:43.039Z,30
2016-08-22T11:28:43.749Z,30
2016-08-22T11:29:44.465Z,30
2016-08-22T11:30:43.823Z,30
2016-08-22T11:31:42.349Z,30
2016-08-22T11:32:43.074Z,25
2016-08-22T11:33:43.268Z,25
2016-08-22T11:34:42.422Z,30
2016-08-22T11:35:43.237Z,30
2016-08-22T11:36:44.512Z,30
2016-08-22T11:37:44.614Z,30
2016-08-22T11:38:43.107Z,30
2016-08-22T11:39:42.411Z,30
2016-08-22T11:40:43.617Z,30
2016-08-22T11:41:43.185Z,30
2016-08-22T11:42:43.842Z,30
2016-08-22T11:43:42.432Z,35
2016-08-22T11:44:43.882Z,35
2016-08-22T11:45:43.165Z,35
2016-08-22T11:46:43.703Z,40
2016-08-22T11:47:43.177Z,35
2016-08-22T11:48:44.982Z,35
2016-08-22T11:49:43.184Z,35
2016-08-22T11:50:44.239Z,40
2016-08-22T11:51:44.671Z,40
2016-08-22T11:52:43.916Z,40
2016-08-22T11:53:44.678Z,35
2016-08-22T11:54:43.924Z,35
2016-08-22T11:55:44.645Z,40
2016-08-22T11:56:43.400Z,45
2016-08-22T11:57:44.007Z,45
2016-08-22T11:58:43.245Z,50
2016-08-22T11:59:45.111Z,50
2016-08-22T12:00:43.967Z,45
2016-08-22T12:01:43.278Z,45
2016-08-22T12:02:43.274Z,45
2016-08-22T12:03:42.573Z,45
2016-08-22T12:04:44.057Z,45
2016-08-22T12:05:42.639Z,50
2016-08-22T12:06:44.003Z,50
2016-08-22T12:07:43.325Z,50
2016-08-22T12:08:43.316Z,50
2016-08-22T12:09:43.374Z,50
2016-08-22T12:10:44.027Z,45
2016-08-22T12:11:44.046Z,45
2016-08-22T12:12:43.284Z,40
2016-08-22T12:13:57.576Z,40
2016-08-22T12:14:44.113Z,40
2016-08-22T12:15:43.361Z,40
2016-08-22T12:16:42.661Z,45
2016-08-22T12:17:45.050Z,45
2016-08-22T12:18:43.378Z,45
2016-08-22T12:19:44.099Z,50
2016-08-22T12:20:41.993Z,50
2016-08-22T12:21:44.900Z,45
2016-08-22T12:22:44.167Z,45
2016-08-22T12:23:43.423Z,40
2016-08-22T12:24:44.145Z,40
2016-08-22T12:25:42.728Z,40
2016-08-22T12:26:42.737Z,40
2016-08-22T12:27:43.443Z,40
2016-08-22T12:28:43.566Z,40
2016-08-22T12:29:43.509Z,40
2016-08-22T12:30:45.147Z,40
2016-08-22T12:31:44.183Z,40
2016-08-22T12:32:44.552Z,40
2016-08-22T12:33:42.782Z,40
2016-08-22T12:34:43.544Z,35
2016-08-22T12:35:44.213Z,35
2016-08-22T12:36:44.928Z,30
2016-08-22T12:37:43.517Z,25
2016-08-22T12:38:44.941Z,20
2016-08-22T12:39:42.114Z,20
2016-08-22T12:40:42.121Z,20
2016-08-22T12:41:43.184Z,20
2016-08-22T12:42:43.601Z,20
2016-08-22T12:43:54.522Z,20
2016-08-22T12:44:45.032Z,20
2016-08-22T12:45:45.399Z,20
2016-08-22T12:46:45.039Z,20
2016-08-22T12:47:43.588Z,20
2016-08-22T12:48:42.883Z,20
2016-08-22T12:49:43.603Z,20
2016-08-22T12:50:43.661Z,20
2016-08-22T12:51:45.075Z,20
2016-08-22T12:52:43.618Z,20
2016-08-22T12:53:44.333Z,25
2016-08-22T12:54:44.283Z,25
2016-08-22T12:55:44.362Z,25
2016-08-22T12:56:46.177Z,30
2016-08-22T12:57:43.705Z,30
2016-08-22T12:58:44.363Z,30
2016-08-22T12:59:43.772Z,30
2016-08-22T13:00:44.388Z,25
2016-08-22T13:01:45.113Z,25
2016-08-22T13:02:44.393Z,25
2016-08-22T13:03:43.693Z,25
2016-08-22T13:04:43.694Z,30
2016-08-22T13:05:43.804Z,35
2016-08-22T13:06:44.440Z,40
2016-08-22T13:07:45.485Z,45
2016-08-22T13:08:44.495Z,40
2016-08-22T13:09:44.031Z,35
2016-08-22T13:10:45.154Z,35
2016-08-22T13:11:42.486Z,35
2016-08-22T13:12:45.170Z,40
2016-08-22T13:13:44.835Z,45
2016-08-22T13:14:44.478Z,50
2016-08-22T13:15:44.488Z,60
2016-08-22T13:16:44.497Z,55
2016-08-22T13:17:44.505Z,55
2016-08-22T13:18:43.794Z,60
2016-08-22T13:19:45.219Z,55
2016-08-22T13:20:45.022Z,50
2016-08-22T13:21:43.815Z,45
2016-08-22T13:22:44.542Z,40
2016-08-22T13:23:44.537Z,35
2016-08-22T13:24:45.253Z,30
2016-08-22T13:25:43.899Z,30
2016-08-22T13:26:43.148Z,25
2016-08-22T13:27:43.402Z,25
2016-08-22T13:28:43.162Z,30
2016-08-22T13:29:46.177Z,30
2016-08-22T13:30:43.223Z,30
2016-08-22T13:31:44.665Z,35
2016-08-22T13:32:43.190Z,35
2016-08-22T13:33:43.910Z,35
2016-08-22T13:34:44.058Z,35
2016-08-22T13:35:44.622Z,35
2016-08-22T13:36:44.628Z,30
2016-08-22T13:37:43.222Z,30
2016-08-22T13:38:42.526Z,30
2016-08-22T13:39:44.649Z,25
2016-08-22T13:40:45.265Z,20
2016-08-22T13:41:44.013Z,20
2016-08-22T13:42:45.178Z,15
2016-08-22T13:43:45.437Z,15
2016-08-22T13:44:44.034Z,15
2016-08-22T13:45:45.743Z,15
2016-08-22T13:46:43.993Z,20
2016-08-22T13:47:45.415Z,20
2016-08-22T13:48:44.015Z,20
2016-08-22T13:49:44.733Z,25
2016-08-22T13:50:44.034Z,25
2016-08-22T13:51:45.992Z,25
2016-08-22T13:52:43.321Z,25
2016-08-22T13:53:44.040Z,25
2016-08-22T13:54:44.107Z,25
2016-08-22T13:55:42.987Z,25
2016-08-22T13:56:45.488Z,25
2016-08-22T13:57:44.068Z,25
2016-08-22T13:58:44.832Z,30
2016-08-22T13:59:44.852Z,35
2016-08-22T14:00:42.720Z,35
2016-08-22T14:01:43.386Z,40
2016-08-22T14:02:45.558Z,40
2016-08-22T14:03:44.866Z,40
2016-08-22T14:04:43.964Z,45
2016-08-22T14:05:45.537Z,45
2016-08-22T14:06:45.991Z,45
2016-08-22T14:07:44.138Z,45
2016-08-22T14:08:44.860Z,45
2016-08-22T14:09:44.173Z,40
2016-08-22T14:10:44.913Z,40
2016-08-22T14:11:45.317Z,45
2016-08-22T14:12:43.472Z,45
2016-08-22T14:14:17.863Z,50
2016-08-22T14:14:44.890Z,50
2016-08-22T14:15:44.899Z,55
2016-08-22T14:16:44.907Z,55
2016-08-22T14:17:45.581Z,55
2016-08-22T14:18:44.213Z,60
2016-08-22T14:19:45.739Z,60
2016-08-22T14:20:44.940Z,60
2016-08-22T14:21:44.960Z,60
2016-08-22T14:22:44.244Z,60
2016-08-22T14:23:44.244Z,60
2016-08-22T14:24:43.548Z,60
2016-08-22T14:25:44.270Z,60
2016-08-22T14:26:45.889Z,60
2016-08-22T14:27:45.741Z,55
2016-08-22T14:28:45.285Z,60
2016-08-22T14:29:45.701Z,60
2016-08-22T14:30:45.013Z,60